createdAt,value
2022-11-05T00:13:11.925Z,8.98022
2022-11-05T00:28:14.361Z,1.79604
2022-11-05T00:43:16.565Z,0
2022-11-05T00:58:18.999Z,0
2022-11-05T01:13:21.245Z,0
2022-11-05T01:28:23.591Z,0
2022-11-05T01:43:25.862Z,0
2022-11-05T01:58:28.079Z,0
2022-11-05T02:13:30.344Z,0
2022-11-05T02:28:32.612Z,0
2022-11-05T02:43:35.063Z,0
2022-11-05T02:58:37.323Z,0
2022-11-05T03:13:39.662Z,0
2022-11-05T03:28:41.853Z,0
2022-11-05T03:43:44.077Z,0
2022-11-05T03:58:46.375Z,0
2022-11-05T04:13:48.613Z,0
2022-11-05T04:28:50.845Z,0
2022-11-05T04:43:53.211Z,0
2022-11-05T04:58:55.531Z,0
2022-11-05T05:13:57.766Z,0
2022-11-05T05:29:00.374Z,0
2022-11-05T05:44:02.756Z,0
2022-11-05T05:59:04.957Z,0
2022-11-05T06:14:07.278Z,0
2022-11-05T06:29:09.555Z,0
2022-11-05T06:44:11.928Z,0
2022-11-05T06:59:14.133Z,0
2022-11-05T07:14:16.375Z,0
2022-11-05T07:29:18.592Z,0
2022-11-05T07:44:20.927Z,0
2022-11-05T07:59:23.192Z,0
2022-11-05T08:14:25.392Z,0
2022-11-05T08:29:27.627Z,0
2022-11-05T08:44:29.879Z,0
2022-11-05T08:59:32.140Z,0
2022-11-05T09:14:34.450Z,0
2022-11-05T09:29:36.788Z,0
2022-11-05T09:44:38.984Z,0
2022-11-05T09:59:41.245Z,0
2022-11-05T10:14:43.467Z,0
2022-11-05T10:29:45.682Z,0
2022-11-05T10:44:47.870Z,0
2022-11-05T10:59:50.129Z,0
2022-11-05T11:14:52.365Z,0
2022-11-05T11:29:54.623Z,0
2022-11-05T11:44:56.825Z,0
2022-11-05T12:00:08.770Z,0
2022-11-05T12:15:11.950Z,0
2022-11-05T12:30:14.439Z,0
2022-11-05T12:45:16.751Z,0
2022-11-05T13:00:18.981Z,0
2022-11-05T13:15:21.336Z,0
2022-11-05T13:30:23.615Z,0
2022-11-05T13:45:25.877Z,0
2022-11-05T14:00:28.102Z,0
2022-11-05T14:15:30.453Z,0.89802
2022-11-05T14:30:36.074Z,11.67429
2022-11-05T14:45:40.769Z,47.59519
2022-11-05T15:00:43.006Z,103.27258
2022-11-05T15:15:45.275Z,264.91663
2022-11-05T15:30:47.588Z,633.10583
2022-11-05T15:45:49.765Z,2437.23291
2022-11-05T16:00:52.017Z,526.24115
2022-11-05T16:15:54.276Z,526.24115
2022-11-05T16:30:56.633Z,431.05078
2022-11-05T16:45:58.988Z,327.7782
2022-11-05T17:01:01.443Z,413.98837
2022-11-05T17:16:03.743Z,590.00079
2022-11-05T17:31:05.956Z,1040.80811
2022-11-05T17:46:08.213Z,2880.8562
2022-11-05T18:01:10.552Z,1481.73706
2022-11-05T18:16:12.819Z,1673.01587
2022-11-05T18:31:18.021Z,1005.78516
2022-11-05T18:46:51.032Z,802.83209
2022-11-05T19:01:58.728Z,797.44397
2022-11-05T19:17:01.137Z,630.4118
2022-11-05T19:32:03.404Z,840.54901
2022-11-05T19:47:05.664Z,860.30554
2022-11-05T20:02:11.937Z,1297.64246
2022-11-05T20:17:18.199Z,1664.03564
2022-11-05T20:32:20.586Z,2250.44434
2022-11-05T20:47:23.341Z,3759.12207
2022-11-05T21:02:25.773Z,3165.5293
2022-11-05T21:17:28.461Z,1038.11401
2022-11-05T21:32:30.910Z,936.63745
2022-11-05T21:47:33.103Z,5695.2583
2022-11-05T22:02:35.662Z,4717.31201
2022-11-05T22:17:41.388Z,4090.49243
2022-11-05T22:32:46.507Z,4208.1333
2022-11-05T22:47:48.870Z,1424.26367
2022-11-05T23:02:51.435Z,1596.68396
2022-11-05T23:17:53.870Z,1025.54163
2022-11-05T23:32:56.393Z,525.34314
2022-11-05T23:47:58.690Z,200.25902
